Piney Fork, Ohio
Current Conditions -  °F | °C
As of 5:53 PM on Tuesday 25 Nov 2014 (Local Time) from KHLG Reporting Station
Clear Clear  
Wind Chill: 31°   Ceiling: Unl
Heat Index: 38°   Visibility: 10mi
Dew Point: 26°   Wind: 10mph
Humidity: 62%   Direction: 310°NW
Pressure: 30.11"   Gusts: NA
Location:  40.27°N, 80.83°W
Report Text: KHLG 252253Z 31009KT 10SM CLR 03/M03 A3011 RMK AO2 SLP207 T00331033
Loading
Personal Weather Stations






























Interactive Weather Map New forecast layout! Learn more

10-Day Weather Forecast

Advertisements
Track Severe Weather on mobile